sensor_id;sensor_type;location;lat;lon;timestamp;P1;durP1;ratioP1;P2;durP2;ratioP2
27999;SDS011;15328;50.860;10.562;2022-09-23T00:02:12;0.57;;;0.57;;
27999;SDS011;15328;50.860;10.562;2022-09-23T00:07:12;1.53;;;0.70;;
27999;SDS011;15328;50.860;10.562;2022-09-23T00:12:13;1.80;;;0.90;;
27999;SDS011;15328;50.860;10.562;2022-09-23T00:17:13;2.45;;;0.90;;
27999;SDS011;15328;50.860;10.562;2022-09-23T00:22:14;2.15;;;0.70;;
27999;SDS011;15328;50.860;10.562;2022-09-23T00:27:14;1.45;;;0.82;;
27999;SDS011;15328;50.860;10.562;2022-09-23T00:32:15;1.38;;;0.88;;
27999;SDS011;15328;50.860;10.562;2022-09-23T00:37:15;1.70;;;0.80;;
27999;SDS011;15328;50.860;10.562;2022-09-23T00:42:16;1.25;;;0.70;;
27999;SDS011;15328;50.860;10.562;2022-09-23T00:52:43;1.65;;;0.90;;
27999;SDS011;15328;50.860;10.562;2022-09-23T00:57:44;1.00;;;0.80;;
27999;SDS011;15328;50.860;10.562;2022-09-23T01:02:45;2.28;;;0.70;;
27999;SDS011;15328;50.860;10.562;2022-09-23T01:07:46;1.15;;;0.80;;
27999;SDS011;15328;50.860;10.562;2022-09-23T01:13:05;1.48;;;0.70;;
27999;SDS011;15328;50.860;10.562;2022-09-23T01:39:43;2.30;;;0.80;;
27999;SDS011;15328;50.860;10.562;2022-09-23T01:44:50;0.93;;;0.70;;
27999;SDS011;15328;50.860;10.562;2022-09-23T01:50:04;1.35;;;0.65;;
27999;SDS011;15328;50.860;10.562;2022-09-23T01:55:28;1.27;;;0.90;;
27999;SDS011;15328;50.860;10.562;2022-09-23T02:00:33;1.10;;;0.85;;
27999;SDS011;15328;50.860;10.562;2022-09-23T02:05:43;1.35;;;1.13;;
27999;SDS011;15328;50.860;10.562;2022-09-23T02:10:50;1.65;;;1.10;;
27999;SDS011;15328;50.860;10.562;2022-09-23T02:15:56;1.17;;;0.80;;
27999;SDS011;15328;50.860;10.562;2022-09-23T02:21:02;2.83;;;1.08;;
27999;SDS011;15328;50.860;10.562;2022-09-23T02:26:19;1.15;;;0.88;;
27999;SDS011;15328;50.860;10.562;2022-09-23T02:32:14;2.22;;;1.10;;
27999;SDS011;15328;50.860;10.562;2022-09-23T02:42:36;1.23;;;0.93;;
27999;SDS011;15328;50.860;10.562;2022-09-23T02:47:58;1.27;;;0.90;;
27999;SDS011;15328;50.860;10.562;2022-09-23T02:53:04;1.35;;;0.98;;
27999;SDS011;15328;50.860;10.562;2022-09-23T02:58:05;1.45;;;0.98;;
27999;SDS011;15328;50.860;10.562;2022-09-23T03:03:14;1.67;;;1.02;;
27999;SDS011;15328;50.860;10.562;2022-09-23T03:08:23;1.67;;;1.05;;
27999;SDS011;15328;50.860;10.562;2022-09-23T03:19:11;1.38;;;1.08;;
27999;SDS011;15328;50.860;10.562;2022-09-23T03:24:33;1.48;;;1.00;;
27999;SDS011;15328;50.860;10.562;2022-09-23T03:29:35;1.27;;;1.00;;
27999;SDS011;15328;50.860;10.562;2022-09-23T03:34:36;1.98;;;1.10;;
27999;SDS011;15328;50.860;10.562;2022-09-23T03:39:40;1.58;;;1.05;;
27999;SDS011;15328;50.860;10.562;2022-09-23T03:44:43;1.73;;;1.17;;
27999;SDS011;15328;50.860;10.562;2022-09-23T03:49:46;6.63;;;2.47;;
27999;SDS011;15328;50.860;10.562;2022-09-23T03:54:48;31.65;;;14.70;;
27999;SDS011;15328;50.860;10.562;2022-09-23T03:59:51;32.45;;;15.32;;
27999;SDS011;15328;50.860;10.562;2022-09-23T04:04:51;35.83;;;20.50;;
27999;SDS011;15328;50.860;10.562;2022-09-23T04:09:52;13.17;;;8.50;;
27999;SDS011;15328;50.860;10.562;2022-09-23T04:14:52;5.57;;;4.25;;
27999;SDS011;15328;50.860;10.562;2022-09-23T04:19:52;3.20;;;2.63;;
27999;SDS011;15328;50.860;10.562;2022-09-23T04:24:53;3.83;;;1.70;;
27999;SDS011;15328;50.860;10.562;2022-09-23T04:29:53;2.00;;;1.80;;
27999;SDS011;15328;50.860;10.562;2022-09-23T04:34:54;2.50;;;1.90;;
27999;SDS011;15328;50.860;10.562;2022-09-23T04:39:54;2.30;;;2.05;;
27999;SDS011;15328;50.860;10.562;2022-09-23T04:44:55;2.20;;;1.70;;
27999;SDS011;15328;50.860;10.562;2022-09-23T04:49:55;2.22;;;1.60;;
27999;SDS011;15328;50.860;10.562;2022-09-23T04:54:55;2.10;;;1.60;;
27999;SDS011;15328;50.860;10.562;2022-09-23T04:59:56;2.35;;;1.60;;
27999;SDS011;15328;50.860;10.562;2022-09-23T05:04:56;3.28;;;1.85;;
27999;SDS011;15328;50.860;10.562;2022-09-23T05:09:57;3.25;;;1.70;;
27999;SDS011;15328;50.860;10.562;2022-09-23T05:14:57;4.20;;;1.80;;
27999;SDS011;15328;50.860;10.562;2022-09-23T05:19:58;2.30;;;1.70;;
27999;SDS011;15328;50.860;10.562;2022-09-23T05:24:58;2.57;;;1.63;;
27999;SDS011;15328;50.860;10.562;2022-09-23T05:30:00;2.90;;;1.90;;
27999;SDS011;15328;50.860;10.562;2022-09-23T05:35:01;1.98;;;1.48;;
27999;SDS011;15328;50.860;10.562;2022-09-23T05:40:01;2.40;;;1.70;;
27999;SDS011;15328;50.860;10.562;2022-09-23T05:45:02;2.88;;;1.67;;
27999;SDS011;15328;50.860;10.562;2022-09-23T05:50:03;2.25;;;1.67;;
27999;SDS011;15328;50.860;10.562;2022-09-23T05:55:03;5.10;;;2.53;;
27999;SDS011;15328;50.860;10.562;2022-09-23T06:00:04;4.70;;;2.95;;
27999;SDS011;15328;50.860;10.562;2022-09-23T06:05:05;2.38;;;1.55;;
27999;SDS011;15328;50.860;10.562;2022-09-23T06:10:06;2.60;;;1.52;;
27999;SDS011;15328;50.860;10.562;2022-09-23T06:15:07;1.83;;;1.30;;
27999;SDS011;15328;50.860;10.562;2022-09-23T06:20:08;2.63;;;1.58;;
27999;SDS011;15328;50.860;10.562;2022-09-23T06:25:08;2.03;;;1.40;;
27999;SDS011;15328;50.860;10.562;2022-09-23T06:30:09;1.73;;;1.30;;
27999;SDS011;15328;50.860;10.562;2022-09-23T06:35:11;1.85;;;1.35;;
27999;SDS011;15328;50.860;10.562;2022-09-23T06:40:11;3.05;;;1.65;;
27999;SDS011;15328;50.860;10.562;2022-09-23T06:45:13;1.85;;;1.40;;
27999;SDS011;15328;50.860;10.562;2022-09-23T06:50:14;1.80;;;1.33;;
27999;SDS011;15328;50.860;10.562;2022-09-23T06:55:14;2.90;;;1.70;;
27999;SDS011;15328;50.860;10.562;2022-09-23T07:00:15;3.33;;;1.90;;
27999;SDS011;15328;50.860;10.562;2022-09-23T07:05:15;2.67;;;1.73;;
27999;SDS011;15328;50.860;10.562;2022-09-23T07:10:16;2.53;;;1.77;;
27999;SDS011;15328;50.860;10.562;2022-09-23T07:15:16;3.35;;;2.10;;
27999;SDS011;15328;50.860;10.562;2022-09-23T07:20:16;1.98;;;1.50;;
27999;SDS011;15328;50.860;10.562;2022-09-23T07:25:18;3.00;;;2.05;;
27999;SDS011;15328;50.860;10.562;2022-09-23T07:30:19;2.22;;;1.73;;
27999;SDS011;15328;50.860;10.562;2022-09-23T07:35:19;3.47;;;2.30;;
27999;SDS011;15328;50.860;10.562;2022-09-23T07:40:19;3.03;;;2.30;;
27999;SDS011;15328;50.860;10.562;2022-09-23T07:45:20;2.42;;;2.00;;
27999;SDS011;15328;50.860;10.562;2022-09-23T07:50:21;3.50;;;2.08;;
27999;SDS011;15328;50.860;10.562;2022-09-23T07:55:21;4.20;;;2.20;;
27999;SDS011;15328;50.860;10.562;2022-09-23T08:00:22;3.88;;;2.60;;
27999;SDS011;15328;50.860;10.562;2022-09-23T08:05:24;3.00;;;2.30;;
27999;SDS011;15328;50.860;10.562;2022-09-23T08:10:24;3.33;;;2.42;;
27999;SDS011;15328;50.860;10.562;2022-09-23T08:15:25;2.77;;;2.23;;
27999;SDS011;15328;50.860;10.562;2022-09-23T08:20:27;5.00;;;2.22;;
27999;SDS011;15328;50.860;10.562;2022-09-23T08:25:46;2.42;;;2.00;;
27999;SDS011;15328;50.860;10.562;2022-09-23T08:30:47;1.98;;;1.40;;
27999;SDS011;15328;50.860;10.562;2022-09-23T08:35:48;2.88;;;1.80;;
27999;SDS011;15328;50.860;10.562;2022-09-23T08:40:48;2.40;;;1.60;;
27999;SDS011;15328;50.860;10.562;2022-09-23T08:45:49;2.95;;;2.15;;
27999;SDS011;15328;50.860;10.562;2022-09-23T08:50:52;2.08;;;1.63;;
27999;SDS011;15328;50.860;10.562;2022-09-23T08:56:16;3.28;;;1.88;;
27999;SDS011;15328;50.860;10.562;2022-09-23T09:01:22;3.08;;;1.90;;
27999;SDS011;15328;50.860;10.562;2022-09-23T09:12:01;2.55;;;1.73;;
27999;SDS011;15328;50.860;10.562;2022-09-23T09:17:09;3.08;;;2.10;;
27999;SDS011;15328;50.860;10.562;2022-09-23T09:22:21;2.20;;;1.60;;
27999;SDS011;15328;50.860;10.562;2022-09-23T09:27:39;2.22;;;1.45;;
27999;SDS011;15328;50.860;10.562;2022-09-23T09:32:44;2.25;;;1.73;;
27999;SDS011;15328;50.860;10.562;2022-09-23T09:37:49;2.00;;;1.38;;
27999;SDS011;15328;50.860;10.562;2022-09-23T09:42:49;3.47;;;2.07;;
27999;SDS011;15328;50.860;10.562;2022-09-23T09:58:19;1.90;;;1.30;;
27999;SDS011;15328;50.860;10.562;2022-09-23T10:03:22;3.25;;;1.60;;
27999;SDS011;15328;50.860;10.562;2022-09-23T10:08:33;2.88;;;1.98;;
27999;SDS011;15328;50.860;10.562;2022-09-23T10:13:34;2.97;;;1.50;;
27999;SDS011;15328;50.860;10.562;2022-09-23T10:18:36;1.70;;;1.27;;
27999;SDS011;15328;50.860;10.562;2022-09-23T10:23:37;2.38;;;1.70;;
27999;SDS011;15328;50.860;10.562;2022-09-23T10:33:48;4.10;;;1.70;;
27999;SDS011;15328;50.860;10.562;2022-09-23T10:38:52;3.00;;;1.67;;
27999;SDS011;15328;50.860;10.562;2022-09-23T10:44:19;3.47;;;1.38;;
27999;SDS011;15328;50.860;10.562;2022-09-23T10:55:17;1.95;;;1.10;;
27999;SDS011;15328;50.860;10.562;2022-09-23T11:00:41;2.58;;;1.45;;
27999;SDS011;15328;50.860;10.562;2022-09-23T11:05:51;2.38;;;1.42;;
27999;SDS011;15328;50.860;10.562;2022-09-23T11:11:18;1.52;;;1.20;;
27999;SDS011;15328;50.860;10.562;2022-09-23T11:16:40;1.85;;;1.20;;
27999;SDS011;15328;50.860;10.562;2022-09-23T11:27:13;1.48;;;1.17;;
27999;SDS011;15328;50.860;10.562;2022-09-23T11:37:47;3.05;;;1.30;;
27999;SDS011;15328;50.860;10.562;2022-09-23T12:09:35;2.72;;;1.40;;
27999;SDS011;15328;50.860;10.562;2022-09-23T12:14:52;1.58;;;1.00;;
27999;SDS011;15328;50.860;10.562;2022-09-23T12:30:34;1.77;;;0.98;;
27999;SDS011;15328;50.860;10.562;2022-09-23T12:35:40;1.23;;;0.90;;
27999;SDS011;15328;50.860;10.562;2022-09-23T12:40:42;2.05;;;1.00;;
27999;SDS011;15328;50.860;10.562;2022-09-23T12:45:43;1.23;;;0.80;;
27999;SDS011;15328;50.860;10.562;2022-09-23T12:51:04;2.63;;;0.90;;
27999;SDS011;15328;50.860;10.562;2022-09-23T13:01:57;2.05;;;0.90;;
27999;SDS011;15328;50.860;10.562;2022-09-23T13:07:26;1.83;;;0.90;;
27999;SDS011;15328;50.860;10.562;2022-09-23T13:12:31;1.13;;;0.80;;
27999;SDS011;15328;50.860;10.562;2022-09-23T13:17:38;1.13;;;0.93;;
27999;SDS011;15328;50.860;10.562;2022-09-23T13:23:25;4.03;;;1.00;;
27999;SDS011;15328;50.860;10.562;2022-09-23T13:28:11;1.52;;;0.90;;
27999;SDS011;15328;50.860;10.562;2022-09-23T13:38:41;3.17;;;0.85;;
27999;SDS011;15328;50.860;10.562;2022-09-23T13:43:43;1.95;;;1.00;;
27999;SDS011;15328;50.860;10.562;2022-09-23T13:48:50;1.58;;;0.90;;
27999;SDS011;15328;50.860;10.562;2022-09-23T13:53:54;0.80;;;0.80;;
27999;SDS011;15328;50.860;10.562;2022-09-23T14:04:24;1.45;;;1.00;;
27999;SDS011;15328;50.860;10.562;2022-09-23T14:09:25;1.58;;;1.05;;
27999;SDS011;15328;50.860;10.562;2022-09-23T14:14:28;1.48;;;1.00;;
27999;SDS011;15328;50.860;10.562;2022-09-23T14:19:29;1.23;;;0.90;;
27999;SDS011;15328;50.860;10.562;2022-09-23T14:24:32;1.58;;;0.90;;
27999;SDS011;15328;50.860;10.562;2022-09-23T14:29:36;0.68;;;0.63;;
27999;SDS011;15328;50.860;10.562;2022-09-23T14:34:40;1.63;;;1.10;;
27999;SDS011;15328;50.860;10.562;2022-09-23T14:40:10;1.90;;;1.00;;
27999;SDS011;15328;50.860;10.562;2022-09-23T14:45:18;3.90;;;1.08;;
27999;SDS011;15328;50.860;10.562;2022-09-23T14:50:23;2.97;;;1.40;;
27999;SDS011;15328;50.860;10.562;2022-09-23T14:55:36;1.95;;;1.15;;
27999;SDS011;15328;50.860;10.562;2022-09-23T15:00:37;2.20;;;1.10;;
27999;SDS011;15328;50.860;10.562;2022-09-23T15:05:41;1.55;;;0.75;;
27999;SDS011;15328;50.860;10.562;2022-09-23T15:10:45;3.80;;;0.90;;
27999;SDS011;15328;50.860;10.562;2022-09-23T15:15:46;2.90;;;1.13;;
27999;SDS011;15328;50.860;10.562;2022-09-23T15:21:30;1.73;;;1.13;;
27999;SDS011;15328;50.860;10.562;2022-09-23T15:26:19;3.33;;;1.15;;
27999;SDS011;15328;50.860;10.562;2022-09-23T15:31:22;3.22;;;1.60;;
27999;SDS011;15328;50.860;10.562;2022-09-23T15:36:26;2.97;;;1.30;;
27999;SDS011;15328;50.860;10.562;2022-09-23T15:41:27;2.08;;;1.10;;
27999;SDS011;15328;50.860;10.562;2022-09-23T15:46:29;1.25;;;0.95;;
27999;SDS011;15328;50.860;10.562;2022-09-23T15:51:30;1.17;;;0.80;;
27999;SDS011;15328;50.860;10.562;2022-09-23T15:56:30;1.80;;;0.80;;
27999;SDS011;15328;50.860;10.562;2022-09-23T16:01:32;0.90;;;0.70;;
27999;SDS011;15328;50.860;10.562;2022-09-23T16:06:34;2.95;;;2.13;;
27999;SDS011;15328;50.860;10.562;2022-09-23T16:11:35;4.13;;;3.28;;
27999;SDS011;15328;50.860;10.562;2022-09-23T16:16:36;9.13;;;5.60;;
27999;SDS011;15328;50.860;10.562;2022-09-23T16:21:36;8.25;;;6.40;;
27999;SDS011;15328;50.860;10.562;2022-09-23T16:26:37;6.28;;;5.40;;
27999;SDS011;15328;50.860;10.562;2022-09-23T16:31:39;4.53;;;4.03;;
27999;SDS011;15328;50.860;10.562;2022-09-23T16:36:40;6.57;;;3.40;;
27999;SDS011;15328;50.860;10.562;2022-09-23T16:41:42;3.17;;;2.63;;
27999;SDS011;15328;50.860;10.562;2022-09-23T16:46:42;11.38;;;7.15;;
27999;SDS011;15328;50.860;10.562;2022-09-23T16:51:43;16.27;;;10.73;;
27999;SDS011;15328;50.860;10.562;2022-09-23T16:56:43;14.88;;;10.02;;
27999;SDS011;15328;50.860;10.562;2022-09-23T17:01:44;5.57;;;3.88;;
27999;SDS011;15328;50.860;10.562;2022-09-23T17:07:03;2.05;;;1.67;;
27999;SDS011;15328;50.860;10.562;2022-09-23T17:12:08;6.05;;;3.92;;
27999;SDS011;15328;50.860;10.562;2022-09-23T17:17:19;4.22;;;3.03;;
27999;SDS011;15328;50.860;10.562;2022-09-23T17:22:20;3.53;;;2.63;;
27999;SDS011;15328;50.860;10.562;2022-09-23T17:27:20;2.63;;;1.57;;
27999;SDS011;15328;50.860;10.562;2022-09-23T17:32:20;2.03;;;1.40;;
27999;SDS011;15328;50.860;10.562;2022-09-23T17:37:21;1.90;;;1.50;;
27999;SDS011;15328;50.860;10.562;2022-09-23T17:42:21;1.83;;;1.35;;
27999;SDS011;15328;50.860;10.562;2022-09-23T17:47:22;1.63;;;1.50;;
27999;SDS011;15328;50.860;10.562;2022-09-23T17:52:22;2.03;;;1.70;;
27999;SDS011;15328;50.860;10.562;2022-09-23T17:57:22;2.17;;;1.70;;
27999;SDS011;15328;50.860;10.562;2022-09-23T18:02:23;2.47;;;1.57;;
27999;SDS011;15328;50.860;10.562;2022-09-23T18:07:23;1.70;;;1.60;;
27999;SDS011;15328;50.860;10.562;2022-09-23T18:12:23;2.50;;;2.00;;
27999;SDS011;15328;50.860;10.562;2022-09-23T18:17:24;2.30;;;1.90;;
27999;SDS011;15328;50.860;10.562;2022-09-23T18:22:24;2.72;;;2.03;;
27999;SDS011;15328;50.860;10.562;2022-09-23T18:27:24;3.63;;;2.15;;
27999;SDS011;15328;50.860;10.562;2022-09-23T18:32:25;3.10;;;1.80;;
27999;SDS011;15328;50.860;10.562;2022-09-23T18:37:25;2.72;;;2.13;;
27999;SDS011;15328;50.860;10.562;2022-09-23T18:42:25;5.93;;;3.03;;
27999;SDS011;15328;50.860;10.562;2022-09-23T18:47:26;3.22;;;2.55;;
27999;SDS011;15328;50.860;10.562;2022-09-23T18:52:45;2.67;;;1.73;;
27999;SDS011;15328;50.860;10.562;2022-09-23T18:57:46;2.92;;;1.80;;
27999;SDS011;15328;50.860;10.562;2022-09-23T19:02:46;2.65;;;1.70;;
27999;SDS011;15328;50.860;10.562;2022-09-23T19:07:47;3.70;;;2.08;;
27999;SDS011;15328;50.860;10.562;2022-09-23T19:12:47;2.87;;;1.73;;
27999;SDS011;15328;50.860;10.562;2022-09-23T19:17:48;2.22;;;1.63;;
27999;SDS011;15328;50.860;10.562;2022-09-23T19:22:48;1.70;;;1.50;;
27999;SDS011;15328;50.860;10.562;2022-09-23T19:27:49;2.88;;;1.63;;
27999;SDS011;15328;50.860;10.562;2022-09-23T19:32:49;3.17;;;1.83;;
27999;SDS011;15328;50.860;10.562;2022-09-23T19:37:49;2.58;;;1.52;;
27999;SDS011;15328;50.860;10.562;2022-09-23T19:42:50;3.70;;;1.85;;
27999;SDS011;15328;50.860;10.562;2022-09-23T19:47:53;4.05;;;2.00;;
27999;SDS011;15328;50.860;10.562;2022-09-23T19:52:57;3.33;;;1.83;;
27999;SDS011;15328;50.860;10.562;2022-09-23T19:57:58;3.70;;;1.88;;
27999;SDS011;15328;50.860;10.562;2022-09-23T20:02:59;3.42;;;2.08;;
27999;SDS011;15328;50.860;10.562;2022-09-23T20:07:59;2.63;;;2.10;;
27999;SDS011;15328;50.860;10.562;2022-09-23T20:13:03;2.08;;;1.50;;
27999;SDS011;15328;50.860;10.562;2022-09-23T20:18:03;3.38;;;1.38;;
27999;SDS011;15328;50.860;10.562;2022-09-23T20:23:03;2.23;;;1.50;;
27999;SDS011;15328;50.860;10.562;2022-09-23T20:28:05;2.13;;;1.42;;
27999;SDS011;15328;50.860;10.562;2022-09-23T20:33:05;3.05;;;1.60;;
27999;SDS011;15328;50.860;10.562;2022-09-23T20:38:05;2.30;;;1.40;;
27999;SDS011;15328;50.860;10.562;2022-09-23T20:43:05;4.93;;;1.53;;
27999;SDS011;15328;50.860;10.562;2022-09-23T20:48:06;2.37;;;1.20;;
27999;SDS011;15328;50.860;10.562;2022-09-23T20:53:10;1.90;;;1.42;;
27999;SDS011;15328;50.860;10.562;2022-09-23T20:58:10;2.00;;;1.43;;
27999;SDS011;15328;50.860;10.562;2022-09-23T21:03:11;1.52;;;1.23;;
27999;SDS011;15328;50.860;10.562;2022-09-23T21:08:11;2.55;;;1.58;;
27999;SDS011;15328;50.860;10.562;2022-09-23T21:13:11;2.10;;;1.43;;
27999;SDS011;15328;50.860;10.562;2022-09-23T21:18:12;3.22;;;1.55;;
27999;SDS011;15328;50.860;10.562;2022-09-23T21:23:12;3.57;;;1.73;;
27999;SDS011;15328;50.860;10.562;2022-09-23T21:28:12;1.52;;;1.23;;
27999;SDS011;15328;50.860;10.562;2022-09-23T21:33:13;2.27;;;1.30;;
27999;SDS011;15328;50.860;10.562;2022-09-23T21:38:13;2.13;;;1.50;;
27999;SDS011;15328;50.860;10.562;2022-09-23T21:43:13;2.33;;;1.60;;
27999;SDS011;15328;50.860;10.562;2022-09-23T21:48:15;3.60;;;1.80;;
27999;SDS011;15328;50.860;10.562;2022-09-23T21:53:16;2.17;;;1.50;;
27999;SDS011;15328;50.860;10.562;2022-09-23T21:58:16;1.63;;;1.25;;
27999;SDS011;15328;50.860;10.562;2022-09-23T22:03:17;1.63;;;1.43;;
27999;SDS011;15328;50.860;10.562;2022-09-23T22:08:17;2.97;;;1.50;;
27999;SDS011;15328;50.860;10.562;2022-09-23T22:13:17;1.87;;;1.50;;
27999;SDS011;15328;50.860;10.562;2022-09-23T22:18:18;1.83;;;1.47;;
27999;SDS011;15328;50.860;10.562;2022-09-23T22:23:18;1.73;;;1.38;;
27999;SDS011;15328;50.860;10.562;2022-09-23T22:28:19;1.97;;;1.30;;
27999;SDS011;15328;50.860;10.562;2022-09-23T22:33:38;1.77;;;1.40;;
27999;SDS011;15328;50.860;10.562;2022-09-23T22:38:38;2.13;;;1.10;;
27999;SDS011;15328;50.860;10.562;2022-09-23T22:43:40;1.80;;;1.40;;
27999;SDS011;15328;50.860;10.562;2022-09-23T22:48:41;1.93;;;1.43;;
27999;SDS011;15328;50.860;10.562;2022-09-23T22:53:42;1.42;;;1.20;;
27999;SDS011;15328;50.860;10.562;2022-09-23T22:58:42;3.13;;;1.60;;
27999;SDS011;15328;50.860;10.562;2022-09-23T23:03:42;2.22;;;1.60;;
27999;SDS011;15328;50.860;10.562;2022-09-23T23:08:44;2.50;;;1.50;;
27999;SDS011;15328;50.860;10.562;2022-09-23T23:13:45;2.63;;;1.40;;
27999;SDS011;15328;50.860;10.562;2022-09-23T23:18:45;1.50;;;1.30;;
27999;SDS011;15328;50.860;10.562;2022-09-23T23:23:47;2.42;;;1.42;;
27999;SDS011;15328;50.860;10.562;2022-09-23T23:28:50;2.30;;;1.50;;
27999;SDS011;15328;50.860;10.562;2022-09-23T23:33:52;2.60;;;1.70;;
27999;SDS011;15328;50.860;10.562;2022-09-23T23:38:52;3.22;;;1.63;;
27999;SDS011;15328;50.860;10.562;2022-09-23T23:43:53;3.00;;;1.43;;
27999;SDS011;15328;50.860;10.562;2022-09-23T23:48:57;2.58;;;1.60;;
27999;SDS011;15328;50.860;10.562;2022-09-23T23:53:58;2.38;;;1.40;;
27999;SDS011;15328;50.860;10.562;2022-09-23T23:58:59;3.95;;;1.58;;
